AVA9340 SKBO-SKRG
Flight info
| Callsign | AVA9340 |
|---|---|
| Flight time | 0h 27m |
| Altitude | 24000 |
| Route | TOBKI4R VASIL W36 NIRSO NIRSO3C |
| Aircraft | A319/M-SDE3FGHIRWY/LB1 |
Departure
| Time | 2026-05-05 20:01 |
|---|---|
| Airport | El Dorado International Airport (SKBO) |
Arrival
| Time | 2026-05-05 20:29 |
|---|---|
| Airport | Jose Maria Córdova International Airport (SKRG) |
| Time | Latitude | Longitude | Altitude | Speed | Heading |
|---|---|---|---|---|---|
| 2026-05-05 19:28 | 4.69879 | -74.14449 | 8366 ft | 0 kts | 226° |
| 2026-05-05 19:46 | 4.69885 | -74.14443 | 8366 ft | 2 kts | 226° |
| 2026-05-05 19:47 | 4.69895 | -74.14430 | 8366 ft | 2 kts | 234° |
| 2026-05-05 19:47 | 4.69904 | -74.14417 | 8366 ft | 2 kts | 249° |
| 2026-05-05 19:47 | 4.69908 | -74.14401 | 8366 ft | 2 kts | 284° |
| 2026-05-05 19:47 | 4.69902 | -74.14387 | 8366 ft | 1 kts | 306° |
| 2026-05-05 19:48 | 4.69899 | -74.14383 | 8366 ft | 0 kts | 307° |
| 2026-05-05 19:52 | 4.69902 | -74.14386 | 8366 ft | 2 kts | 307° |
| 2026-05-05 19:52 | 4.69908 | -74.14395 | 8366 ft | 1 kts | 307° |
| 2026-05-05 19:52 | 4.69914 | -74.14403 | 8366 ft | 1 kts | 307° |
| 2026-05-05 19:52 | 4.69921 | -74.14412 | 8366 ft | 3 kts | 307° |
| 2026-05-05 19:53 | 4.69945 | -74.14444 | 8366 ft | 6 kts | 306° |
| 2026-05-05 19:53 | 4.69963 | -74.14470 | 8366 ft | 4 kts | 307° |
| 2026-05-05 19:53 | 4.69987 | -74.14502 | 8366 ft | 11 kts | 306° |
| 2026-05-05 19:53 | 4.70044 | -74.14579 | 8366 ft | 12 kts | 306° |
| 2026-05-05 19:54 | 4.70086 | -74.14633 | 8366 ft | 7 kts | 321° |
| 2026-05-05 19:54 | 4.70132 | -74.14646 | 8366 ft | 8 kts | 343° |
| 2026-05-05 19:54 | 4.70155 | -74.14703 | 8366 ft | 12 kts | 245° |
| 2026-05-05 19:54 | 4.70074 | -74.14770 | 8366 ft | 17 kts | 217° |
| 2026-05-05 19:55 | 4.69987 | -74.14835 | 8366 ft | 14 kts | 217° |
| 2026-05-05 19:55 | 4.69918 | -74.14887 | 8366 ft | 11 kts | 217° |
| 2026-05-05 19:55 | 4.69865 | -74.14927 | 8366 ft | 9 kts | 221° |
| 2026-05-05 19:55 | 4.69864 | -74.14989 | 8366 ft | 14 kts | 305° |
| 2026-05-05 19:56 | 4.69944 | -74.15094 | 8366 ft | 24 kts | 307° |
| 2026-05-05 19:56 | 4.70061 | -74.15248 | 8366 ft | 29 kts | 307° |
| 2026-05-05 19:56 | 4.70174 | -74.15397 | 8365 ft | 25 kts | 307° |
| 2026-05-05 19:56 | 4.70270 | -74.15524 | 8366 ft | 21 kts | 307° |
| 2026-05-05 19:57 | 4.70349 | -74.15630 | 8365 ft | 18 kts | 306° |
| 2026-05-05 19:57 | 4.70404 | -74.15702 | 8365 ft | 23 kts | 308° |
| 2026-05-05 19:57 | 4.70538 | -74.15879 | 8365 ft | 24 kts | 306° |
| 2026-05-05 19:57 | 4.70640 | -74.16013 | 8366 ft | 24 kts | 307° |
| 2026-05-05 19:58 | 4.70741 | -74.16146 | 8366 ft | 24 kts | 307° |
| 2026-05-05 19:58 | 4.70842 | -74.16281 | 8366 ft | 24 kts | 307° |
| 2026-05-05 19:58 | 4.70945 | -74.16416 | 8366 ft | 24 kts | 307° |
| 2026-05-05 19:58 | 4.71050 | -74.16554 | 8366 ft | 27 kts | 307° |
| 2026-05-05 19:59 | 4.71169 | -74.16712 | 8366 ft | 25 kts | 307° |
| 2026-05-05 19:59 | 4.71204 | -74.16793 | 8365 ft | 3 kts | 239° |
| 2026-05-05 19:59 | 4.71189 | -74.16804 | 8365 ft | 2 kts | 217° |
| 2026-05-05 19:59 | 4.71174 | -74.16815 | 8365 ft | 4 kts | 215° |
| 2026-05-05 20:00 | 4.71140 | -74.16839 | 8364 ft | 8 kts | 216° |
| 2026-05-05 20:00 | 4.71084 | -74.16879 | 8363 ft | 12 kts | 211° |
| 2026-05-05 20:00 | 4.70999 | -74.16848 | 8363 ft | 17 kts | 130° |
| 2026-05-05 20:00 | 4.70834 | -74.16631 | 8364 ft | 70 kts | 127° |
| 2026-05-05 20:01 | 4.70417 | -74.16080 | 8365 ft | 126 kts | 127° |
| 2026-05-05 20:01 | 4.69787 | -74.15251 | 8368 ft | 171 kts | 127° |
| 2026-05-05 20:01 | 4.69050 | -74.14305 | 9191 ft | 157 kts | 128° |
| 2026-05-05 20:01 | 4.68403 | -74.13487 | 9823 ft | 153 kts | 130° |
| 2026-05-05 20:02 | 4.67417 | -74.12878 | 9977 ft | 182 kts | 166° |
| 2026-05-05 20:02 | 4.66108 | -74.13096 | 10256 ft | 207 kts | 210° |
| 2026-05-05 20:02 | 4.65169 | -74.14232 | 10634 ft | 220 kts | 244° |
| 2026-05-05 20:02 | 4.64532 | -74.15632 | 11110 ft | 223 kts | 244° |
| 2026-05-05 20:03 | 4.63888 | -74.17047 | 11510 ft | 230 kts | 243° |
| 2026-05-05 20:03 | 4.63131 | -74.18521 | 11694 ft | 248 kts | 237° |
| 2026-05-05 20:03 | 4.62168 | -74.20029 | 12068 ft | 259 kts | 235° |
| 2026-05-05 20:03 | 4.61416 | -74.21706 | 12517 ft | 275 kts | 253° |
| 2026-05-05 20:04 | 4.60966 | -74.23651 | 12725 ft | 298 kts | 257° |
| 2026-05-05 20:04 | 4.60539 | -74.25772 | 12906 ft | 322 kts | 258° |
| 2026-05-05 20:04 | 4.60175 | -74.28068 | 13051 ft | 346 kts | 263° |
| 2026-05-05 20:04 | 4.60002 | -74.30534 | 13375 ft | 361 kts | 270° |
| 2026-05-05 20:05 | 4.60447 | -74.33017 | 13979 ft | 367 kts | 290° |
| 2026-05-05 20:05 | 4.61636 | -74.35298 | 14462 ft | 372 kts | 303° |
| 2026-05-05 20:05 | 4.63031 | -74.37502 | 15061 ft | 374 kts | 304° |
| 2026-05-05 20:05 | 4.64450 | -74.39693 | 15690 ft | 375 kts | 304° |
| 2026-05-05 20:06 | 4.65868 | -74.41863 | 16262 ft | 377 kts | 304° |
| 2026-05-05 20:06 | 4.67312 | -74.44065 | 16818 ft | 380 kts | 304° |
| 2026-05-05 20:06 | 4.68773 | -74.46299 | 17363 ft | 384 kts | 304° |
| 2026-05-05 20:06 | 4.70238 | -74.48549 | 17872 ft | 387 kts | 304° |
| 2026-05-05 20:07 | 4.71711 | -74.50820 | 18324 ft | 390 kts | 304° |
| 2026-05-05 20:07 | 4.73190 | -74.53111 | 18808 ft | 393 kts | 304° |
| 2026-05-05 20:07 | 4.74179 | -74.54645 | 19133 ft | 395 kts | 304° |
| 2026-05-05 20:07 | 4.75674 | -74.56964 | 19613 ft | 397 kts | 304° |
| 2026-05-05 20:08 | 4.77181 | -74.59297 | 20102 ft | 400 kts | 304° |
| 2026-05-05 20:08 | 4.79192 | -74.62409 | 20765 ft | 402 kts | 304° |
| 2026-05-05 20:08 | 4.80718 | -74.64775 | 21209 ft | 406 kts | 304° |
| 2026-05-05 20:08 | 4.81755 | -74.66383 | 21480 ft | 409 kts | 304° |
| 2026-05-05 20:09 | 4.83306 | -74.68788 | 21986 ft | 410 kts | 304° |
| 2026-05-05 20:09 | 4.84860 | -74.71189 | 22481 ft | 412 kts | 304° |
| 2026-05-05 20:09 | 4.86425 | -74.73607 | 22971 ft | 414 kts | 304° |
| 2026-05-05 20:09 | 4.88001 | -74.76041 | 23450 ft | 417 kts | 304° |
| 2026-05-05 20:10 | 4.89581 | -74.78487 | 23811 ft | 419 kts | 304° |
| 2026-05-05 20:10 | 4.91161 | -74.80936 | 23903 ft | 417 kts | 304° |
| 2026-05-05 20:10 | 4.92709 | -74.83335 | 23908 ft | 401 kts | 304° |
| 2026-05-05 20:10 | 4.94208 | -74.85658 | 23906 ft | 394 kts | 304° |
| 2026-05-05 20:11 | 4.95691 | -74.87956 | 23904 ft | 392 kts | 304° |
| 2026-05-05 20:11 | 4.97166 | -74.90244 | 23904 ft | 391 kts | 304° |
| 2026-05-05 20:11 | 4.98646 | -74.92537 | 23896 ft | 391 kts | 304° |
| 2026-05-05 20:11 | 5.00125 | -74.94827 | 23894 ft | 391 kts | 304° |
| 2026-05-05 20:12 | 5.01606 | -74.97115 | 23894 ft | 392 kts | 304° |
| 2026-05-05 20:12 | 5.03091 | -74.99412 | 23895 ft | 393 kts | 304° |
| 2026-05-05 20:12 | 5.04563 | -75.01692 | 23928 ft | 394 kts | 304° |
| 2026-05-05 20:12 | 5.06067 | -75.04025 | 23933 ft | 393 kts | 304° |
| 2026-05-05 20:13 | 5.07528 | -75.06295 | 23937 ft | 392 kts | 304° |
| 2026-05-05 20:13 | 5.09010 | -75.08599 | 23975 ft | 392 kts | 304° |
| 2026-05-05 20:13 | 5.10494 | -75.10900 | 23978 ft | 393 kts | 304° |
| 2026-05-05 20:13 | 5.11983 | -75.13206 | 23994 ft | 393 kts | 304° |
| 2026-05-05 20:14 | 5.13470 | -75.15509 | 24020 ft | 393 kts | 304° |
| 2026-05-05 20:14 | 5.14957 | -75.17812 | 24007 ft | 392 kts | 304° |
| 2026-05-05 20:14 | 5.16606 | -75.19943 | 23791 ft | 383 kts | 313° |
| 2026-05-05 20:14 | 5.18367 | -75.21934 | 23605 ft | 380 kts | 313° |
| 2026-05-05 20:15 | 5.20122 | -75.23916 | 23353 ft | 379 kts | 313° |
| 2026-05-05 20:15 | 5.21872 | -75.25890 | 23094 ft | 378 kts | 313° |
| 2026-05-05 20:15 | 5.23613 | -75.27857 | 22847 ft | 376 kts | 313° |
| 2026-05-05 20:15 | 5.25346 | -75.29814 | 22604 ft | 374 kts | 313° |
| 2026-05-05 20:16 | 5.27067 | -75.31763 | 22335 ft | 371 kts | 313° |
| 2026-05-05 20:16 | 5.28773 | -75.33694 | 21926 ft | 368 kts | 313° |
| 2026-05-05 20:16 | 5.30471 | -75.35613 | 21468 ft | 367 kts | 313° |
| 2026-05-05 20:16 | 5.32227 | -75.37454 | 20996 ft | 364 kts | 321° |
| 2026-05-05 20:17 | 5.34302 | -75.38870 | 20551 ft | 359 kts | 335° |
| 2026-05-05 20:17 | 5.36621 | -75.39751 | 20104 ft | 354 kts | 349° |
| 2026-05-05 20:17 | 5.39040 | -75.40085 | 19670 ft | 349 kts | 360° |
| 2026-05-05 20:17 | 5.41457 | -75.40209 | 19257 ft | 347 kts | 0° |
| 2026-05-05 20:18 | 5.43868 | -75.40337 | 18847 ft | 347 kts | 359° |
| 2026-05-05 20:18 | 5.46276 | -75.40468 | 18423 ft | 346 kts | 359° |
| 2026-05-05 20:18 | 5.48676 | -75.40603 | 17985 ft | 345 kts | 360° |
| 2026-05-05 20:18 | 5.51067 | -75.40738 | 17572 ft | 343 kts | 359° |
| 2026-05-05 20:19 | 5.53447 | -75.40874 | 17175 ft | 342 kts | 359° |
| 2026-05-05 20:19 | 5.55815 | -75.41008 | 16786 ft | 341 kts | 359° |
| 2026-05-05 20:19 | 5.58199 | -75.41140 | 16152 ft | 346 kts | 359° |
| 2026-05-05 20:19 | 5.60589 | -75.41271 | 15701 ft | 341 kts | 359° |
| 2026-05-05 20:20 | 5.62939 | -75.41404 | 15323 ft | 335 kts | 359° |
| 2026-05-05 20:20 | 5.65218 | -75.41532 | 14944 ft | 329 kts | 358° |
| 2026-05-05 20:20 | 5.67494 | -75.41659 | 14585 ft | 324 kts | 359° |
| 2026-05-05 20:20 | 5.69735 | -75.41782 | 14221 ft | 321 kts | 359° |
| 2026-05-05 20:21 | 5.71935 | -75.41903 | 14014 ft | 310 kts | 359° |
| 2026-05-05 20:21 | 5.74038 | -75.42022 | 13902 ft | 297 kts | 359° |
| 2026-05-05 20:21 | 5.76059 | -75.42136 | 13783 ft | 287 kts | 359° |
| 2026-05-05 20:21 | 5.78030 | -75.42240 | 13544 ft | 280 kts | 0° |
| 2026-05-05 20:22 | 5.79996 | -75.42278 | 12996 ft | 283 kts | 3° |
| 2026-05-05 20:22 | 5.81937 | -75.42149 | 12647 ft | 277 kts | 6° |
| 2026-05-05 20:22 | 5.83864 | -75.42087 | 12230 ft | 277 kts | 2° |
| 2026-05-05 20:22 | 5.85769 | -75.42105 | 12015 ft | 268 kts | 1° |
| 2026-05-05 20:23 | 5.87594 | -75.42125 | 11872 ft | 258 kts | 2° |
| 2026-05-05 20:23 | 5.89354 | -75.42138 | 11598 ft | 248 kts | 2° |
| 2026-05-05 20:23 | 5.91052 | -75.42148 | 11315 ft | 241 kts | 2° |
| 2026-05-05 20:23 | 5.92697 | -75.42159 | 11067 ft | 232 kts | 3° |
| 2026-05-05 20:24 | 5.94280 | -75.42169 | 10788 ft | 223 kts | 2° |
| 2026-05-05 20:24 | 5.95807 | -75.42179 | 10524 ft | 215 kts | 4° |
| 2026-05-05 20:24 | 5.97266 | -75.42188 | 10303 ft | 211 kts | 2° |
| 2026-05-05 20:24 | 5.98743 | -75.42197 | 10061 ft | 209 kts | 2° |
| 2026-05-05 20:25 | 6.00176 | -75.42207 | 9807 ft | 203 kts | 1° |
| 2026-05-05 20:25 | 6.01587 | -75.42216 | 9542 ft | 202 kts | 3° |
| 2026-05-05 20:25 | 6.02975 | -75.42225 | 9305 ft | 198 kts | 3° |
| 2026-05-05 20:25 | 6.04339 | -75.42234 | 9070 ft | 195 kts | 1° |
| 2026-05-05 20:26 | 6.05666 | -75.42242 | 8835 ft | 190 kts | 0° |
| 2026-05-05 20:26 | 6.06975 | -75.42251 | 8613 ft | 185 kts | 1° |
| 2026-05-05 20:26 | 6.08241 | -75.42259 | 8393 ft | 175 kts | 2° |
| 2026-05-05 20:26 | 6.09419 | -75.42271 | 8146 ft | 165 kts | 2° |
| 2026-05-05 20:27 | 6.10559 | -75.42279 | 7891 ft | 162 kts | 1° |
| 2026-05-05 20:27 | 6.11672 | -75.42289 | 7665 ft | 162 kts | 3° |
| 2026-05-05 20:27 | 6.12807 | -75.42292 | 7461 ft | 163 kts | 3° |
| 2026-05-05 20:27 | 6.13948 | -75.42297 | 7252 ft | 163 kts | 3° |
| 2026-05-05 20:28 | 6.15080 | -75.42306 | 7002 ft | 162 kts | 2° |
| 2026-05-05 20:28 | 6.16108 | -75.42311 | 6982 ft | 129 kts | 360° |
| 2026-05-05 20:28 | 6.16835 | -75.42316 | 7013 ft | 80 kts | 359° |
| 2026-05-05 20:28 | 6.17269 | -75.42318 | 7022 ft | 57 kts | 0° |
| 2026-05-05 20:29 | 6.17547 | -75.42325 | 7024 ft | 22 kts | 344° |
| 2026-05-05 20:29 | 6.17573 | -75.42442 | 7021 ft | 16 kts | 271° |
| 2026-05-05 20:29 | 6.17516 | -75.42528 | 7019 ft | 15 kts | 214° |
| 2026-05-05 20:29 | 6.17423 | -75.42591 | 7017 ft | 17 kts | 214° |
| 2026-05-05 20:30 | 6.17313 | -75.42620 | 7016 ft | 17 kts | 178° |
| 2026-05-05 20:30 | 6.17197 | -75.42618 | 7016 ft | 17 kts | 180° |
| 2026-05-05 20:30 | 6.17083 | -75.42618 | 7016 ft | 16 kts | 194° |
| 2026-05-05 20:30 | 6.17017 | -75.42676 | 7017 ft | 10 kts | 249° |
| 2026-05-05 20:31 | 6.17029 | -75.42700 | 7018 ft | 3 kts | 323° |
| 2026-05-05 20:31 | 6.17039 | -75.42712 | 7016 ft | 0 kts | 304° |
| 2026-05-05 20:31 | 6.17040 | -75.42713 | 7016 ft | 0 kts | 306° |